Co Bluffs, Iowa
Current Conditions -  °F | °C
As of 3:52 AM on Saturday 20 Dec 2014 (Local Time) from KOMA Reporting Station
Freezing Drizzle Freezing Drizzle  
Wind Chill: 22°   Ceiling: 400
Heat Index: 31°   Visibility: 2mi
Dew Point: 30°   Wind: 10mph
Humidity: 96%   Direction: 150°SSE
Pressure: 30.13"   Gusts: NA
Location:  41.2617°N, 95.8608°W
Report Text: KOMA 200952Z 15009KT 2SM -FZDZ BR OVC004 M01/M01 A3013 RMK AO2 SLP213 P0000 I1000 T10061011
Loading
Personal Weather Stations






























Interactive Weather Map New forecast layout! Learn more

10-Day Weather Forecast

Advertisements
Track Severe Weather on mobile